<?xml version="1.0" encoding="UTF-8" standalone="no" ?>
<gpx xmlns="http://www.topografix.com/GPX/1/1" xmlns:xsi="http://www.w3.org/2001/XMLSchema-instance" xsi:schemaLocation="http://www.topografix.com/GPX/1/1 http://www.topografix.com/GPX/1/1/gpx.xsd" version="1.1" creator="VisuGPX - https://www.visugpx.com">
  <metadata>
    <name>Boissy St Léger - Villeneuve Saint Georges 17 Kms</name>
    <desc><![CDATA[Boissy St Léger - Villeneuve Saint Georges 17 Kms]]></desc>
  </metadata>
  <trk>
    <name><![CDATA[Villeneuve-Boissy 172]]></name>
    <extensions>
      <line xmlns="http://www.topografix.com/GPX/gpx_style/0/2">
        <color>0000FF</color>
        <width>4</width>
      </line>
    </extensions>
    <trkseg>
      <trkpt lat="48.75302" lon="2.50533">
        <ele>71.27</ele>
        <time>2012-05-08T12:47:10Z</time>
      </trkpt>
      <trkpt lat="48.75318" lon="2.50578">
        <ele>69.35</ele>
        <time>2012-05-08T12:46:44Z</time>
      </trkpt>
      <trkpt lat="48.75337" lon="2.50606">
        <ele>55</ele>
      </trkpt>
      <trkpt lat="48.75351" lon="2.50646">
        <ele>55.32421875</ele>
      </trkpt>
      <trkpt lat="48.75379" lon="2.50651">
        <ele>69.35</ele>
        <time>2012-05-08T12:46:19Z</time>
      </trkpt>
      <trkpt lat="48.75382" lon="2.5067">
        <ele>69.83</ele>
        <time>2012-05-08T12:45:09Z</time>
      </trkpt>
      <trkpt lat="48.75367" lon="2.50701">
        <ele>70.79</ele>
        <time>2012-05-08T12:44:48Z</time>
      </trkpt>
      <trkpt lat="48.75356" lon="2.50697">
        <ele>71.76</ele>
        <time>2012-05-08T12:44:30Z</time>
      </trkpt>
      <trkpt lat="48.75333" lon="2.50736">
        <ele>74.16</ele>
        <time>2012-05-08T12:44:08Z</time>
      </trkpt>
      <trkpt lat="48.75313" lon="2.50764">
        <ele>75.12</ele>
        <time>2012-05-08T12:43:47Z</time>
      </trkpt>
      <trkpt lat="48.75293" lon="2.5079">
        <ele>77.52</ele>
        <time>2012-05-08T12:43:21Z</time>
      </trkpt>
      <trkpt lat="48.75279" lon="2.50807">
        <ele>80.41</ele>
        <time>2012-05-08T12:42:53Z</time>
      </trkpt>
      <trkpt lat="48.75259" lon="2.50835">
        <ele>80.89</ele>
        <time>2012-05-08T12:42:24Z</time>
      </trkpt>
      <trkpt lat="48.7524" lon="2.50859">
        <ele>83.29</ele>
        <time>2012-05-08T12:42:00Z</time>
      </trkpt>
      <trkpt lat="48.75214" lon="2.50897">
        <ele>85.69</ele>
        <time>2012-05-08T12:41:40Z</time>
      </trkpt>
      <trkpt lat="48.75187" lon="2.50926">
        <ele>87.62</ele>
        <time>2012-05-08T12:41:17Z</time>
      </trkpt>
      <trkpt lat="48.7515" lon="2.50959">
        <ele>89.06</ele>
        <time>2012-05-08T12:40:57Z</time>
      </trkpt>
      <trkpt lat="48.7513" lon="2.50984">
        <ele>90.98</ele>
        <time>2012-05-08T12:40:31Z</time>
      </trkpt>
      <trkpt lat="48.75107" lon="2.51031">
        <ele>93.87</ele>
        <time>2012-05-08T12:40:05Z</time>
      </trkpt>
      <trkpt lat="48.7508" lon="2.51067">
        <ele>95.79</ele>
        <time>2012-05-08T12:39:34Z</time>
      </trkpt>
      <trkpt lat="48.75053" lon="2.51099">
        <ele>97.71</ele>
        <time>2012-05-08T12:39:06Z</time>
      </trkpt>
      <trkpt lat="48.75023" lon="2.51134">
        <ele>98.67</ele>
        <time>2012-05-08T12:38:41Z</time>
      </trkpt>
      <trkpt lat="48.74994" lon="2.51165">
        <ele>100.11</ele>
        <time>2012-05-08T12:38:03Z</time>
      </trkpt>
      <trkpt lat="48.74965" lon="2.51195">
        <ele>100.6</ele>
        <time>2012-05-08T12:37:35Z</time>
      </trkpt>
      <trkpt lat="48.74926" lon="2.51235">
        <ele>101.56</ele>
        <time>2012-05-08T12:36:50Z</time>
      </trkpt>
      <trkpt lat="48.74884" lon="2.51273">
        <ele>102.04</ele>
        <time>2012-05-08T12:36:15Z</time>
      </trkpt>
      <trkpt lat="48.74872" lon="2.51285">
        <ele>101.08</ele>
        <time>2012-05-08T12:35:39Z</time>
      </trkpt>
      <trkpt lat="48.74848" lon="2.51284">
        <ele>100.6</ele>
        <time>2012-05-08T12:34:33Z</time>
      </trkpt>
      <trkpt lat="48.74802" lon="2.51274">
        <ele>100.11</ele>
        <time>2012-05-08T12:34:05Z</time>
      </trkpt>
      <trkpt lat="48.74773" lon="2.51268">
        <ele>97.71</ele>
        <time>2012-05-08T12:33:18Z</time>
      </trkpt>
      <trkpt lat="48.74739" lon="2.51258">
        <ele>97.23</ele>
        <time>2012-05-08T12:32:55Z</time>
      </trkpt>
      <trkpt lat="48.7471" lon="2.51249">
        <ele>96.27</ele>
        <time>2012-05-08T12:32:30Z</time>
      </trkpt>
      <trkpt lat="48.74671" lon="2.51234">
        <ele>96.27</ele>
        <time>2012-05-08T12:31:58Z</time>
      </trkpt>
      <trkpt lat="48.74639" lon="2.51224">
        <ele>97.71</ele>
        <time>2012-05-08T12:31:33Z</time>
      </trkpt>
      <trkpt lat="48.74607" lon="2.51214">
        <ele>99.15</ele>
        <time>2012-05-08T12:31:07Z</time>
      </trkpt>
      <trkpt lat="48.74576" lon="2.51205">
        <ele>98.19</ele>
        <time>2012-05-08T12:30:12Z</time>
      </trkpt>
      <trkpt lat="48.74542" lon="2.51195">
        <ele>99.63</ele>
        <time>2012-05-08T12:29:44Z</time>
      </trkpt>
      <trkpt lat="48.74513" lon="2.51179">
        <ele>100.6</ele>
        <time>2012-05-08T12:29:17Z</time>
      </trkpt>
      <trkpt lat="48.74488" lon="2.51157">
        <ele>99.63</ele>
        <time>2012-05-08T12:28:53Z</time>
      </trkpt>
      <trkpt lat="48.74465" lon="2.51136">
        <ele>99.63</ele>
        <time>2012-05-08T12:27:36Z</time>
      </trkpt>
      <trkpt lat="48.74455" lon="2.5113">
        <ele>100.6</ele>
        <time>2012-05-08T12:26:59Z</time>
      </trkpt>
      <trkpt lat="48.74421" lon="2.5112">
        <ele>101.08</ele>
        <time>2012-05-08T12:26:36Z</time>
      </trkpt>
      <trkpt lat="48.74387" lon="2.51081">
        <ele>101.56</ele>
        <time>2012-05-08T12:26:15Z</time>
      </trkpt>
      <trkpt lat="48.74369" lon="2.51058">
        <ele>101.56</ele>
        <time>2012-05-08T12:25:51Z</time>
      </trkpt>
      <trkpt lat="48.74337" lon="2.51021">
        <ele>102.04</ele>
        <time>2012-05-08T12:25:29Z</time>
      </trkpt>
      <trkpt lat="48.7431" lon="2.5099">
        <ele>101.56</ele>
        <time>2012-05-08T12:25:01Z</time>
      </trkpt>
      <trkpt lat="48.7428" lon="2.50952">
        <ele>102.52</ele>
        <time>2012-05-08T12:24:35Z</time>
      </trkpt>
      <trkpt lat="48.74257" lon="2.50925">
        <ele>102.04</ele>
        <time>2012-05-08T12:24:06Z</time>
      </trkpt>
      <trkpt lat="48.74227" lon="2.50886">
        <ele>102.04</ele>
        <time>2012-05-08T12:23:39Z</time>
      </trkpt>
      <trkpt lat="48.74198" lon="2.50859">
        <ele>103.48</ele>
        <time>2012-05-08T12:23:13Z</time>
      </trkpt>
      <trkpt lat="48.74176" lon="2.50832">
        <ele>103</ele>
        <time>2012-05-08T12:22:53Z</time>
      </trkpt>
      <trkpt lat="48.74153" lon="2.50803">
        <ele>104.44</ele>
        <time>2012-05-08T12:22:30Z</time>
      </trkpt>
      <trkpt lat="48.74132" lon="2.50774">
        <ele>103.48</ele>
        <time>2012-05-08T12:22:07Z</time>
      </trkpt>
      <trkpt lat="48.74102" lon="2.50738">
        <ele>103</ele>
        <time>2012-05-08T12:21:43Z</time>
      </trkpt>
      <trkpt lat="48.74081" lon="2.50779">
        <ele>103.48</ele>
        <time>2012-05-08T12:21:18Z</time>
      </trkpt>
      <trkpt lat="48.74063" lon="2.5082">
        <ele>103</ele>
        <time>2012-05-08T12:20:46Z</time>
      </trkpt>
      <trkpt lat="48.74043" lon="2.50856">
        <ele>103</ele>
        <time>2012-05-08T12:20:17Z</time>
      </trkpt>
      <trkpt lat="48.74024" lon="2.50889">
        <ele>103.48</ele>
        <time>2012-05-08T12:19:54Z</time>
      </trkpt>
      <trkpt lat="48.74006" lon="2.50923">
        <ele>104.44</ele>
        <time>2012-05-08T12:19:29Z</time>
      </trkpt>
      <trkpt lat="48.73988" lon="2.50951">
        <ele>103.48</ele>
        <time>2012-05-08T12:18:56Z</time>
      </trkpt>
      <trkpt lat="48.73971" lon="2.50988">
        <ele>101.56</ele>
        <time>2012-05-08T12:17:57Z</time>
      </trkpt>
      <trkpt lat="48.73898" lon="2.50952">
        <ele>101.08</ele>
        <time>2012-05-08T12:17:05Z</time>
      </trkpt>
      <trkpt lat="48.73861" lon="2.5093">
        <ele>101.08</ele>
        <time>2012-05-08T12:16:16Z</time>
      </trkpt>
      <trkpt lat="48.73819" lon="2.50915">
        <ele>100.11</ele>
        <time>2012-05-08T12:15:42Z</time>
      </trkpt>
      <trkpt lat="48.7378" lon="2.50897">
        <ele>100.11</ele>
        <time>2012-05-08T12:15:11Z</time>
      </trkpt>
      <trkpt lat="48.73733" lon="2.50879">
        <ele>99.15</ele>
        <time>2012-05-08T12:14:37Z</time>
      </trkpt>
      <trkpt lat="48.73711" lon="2.50868">
        <ele>99.63</ele>
        <time>2012-05-08T12:14:06Z</time>
      </trkpt>
      <trkpt lat="48.73694" lon="2.50858">
        <ele>100.6</ele>
        <time>2012-05-08T12:13:41Z</time>
      </trkpt>
      <trkpt lat="48.73672" lon="2.50858">
        <ele>101.08</ele>
        <time>2012-05-08T12:13:18Z</time>
      </trkpt>
      <trkpt lat="48.73657" lon="2.50957">
        <ele>99.63</ele>
        <time>2012-05-08T12:12:52Z</time>
      </trkpt>
      <trkpt lat="48.73649" lon="2.51002">
        <ele>99.15</ele>
        <time>2012-05-08T12:12:27Z</time>
      </trkpt>
      <trkpt lat="48.73642" lon="2.51048">
        <ele>99.63</ele>
        <time>2012-05-08T12:12:04Z</time>
      </trkpt>
      <trkpt lat="48.7363" lon="2.51104">
        <ele>99.63</ele>
        <time>2012-05-08T12:11:40Z</time>
      </trkpt>
      <trkpt lat="48.73622" lon="2.51158">
        <ele>99.63</ele>
        <time>2012-05-08T12:11:11Z</time>
      </trkpt>
      <trkpt lat="48.73612" lon="2.512">
        <ele>99.63</ele>
        <time>2012-05-08T12:10:37Z</time>
      </trkpt>
      <trkpt lat="48.73607" lon="2.51226">
        <ele>98.19</ele>
        <time>2012-05-08T12:09:58Z</time>
      </trkpt>
      <trkpt lat="48.7353" lon="2.51232">
        <ele>99.15</ele>
        <time>2012-05-08T12:09:23Z</time>
      </trkpt>
      <trkpt lat="48.73492" lon="2.51233">
        <ele>98.19</ele>
        <time>2012-05-08T12:08:47Z</time>
      </trkpt>
      <trkpt lat="48.73454" lon="2.51234">
        <ele>97.71</ele>
        <time>2012-05-08T12:08:16Z</time>
      </trkpt>
      <trkpt lat="48.7341" lon="2.51234">
        <ele>96.75</ele>
        <time>2012-05-08T12:07:42Z</time>
      </trkpt>
      <trkpt lat="48.73371" lon="2.51233">
        <ele>96.75</ele>
        <time>2012-05-08T12:07:03Z</time>
      </trkpt>
      <trkpt lat="48.73336" lon="2.51232">
        <ele>96.27</ele>
        <time>2012-05-08T12:06:25Z</time>
      </trkpt>
      <trkpt lat="48.73309" lon="2.51234">
        <ele>97.71</ele>
        <time>2012-05-08T12:05:51Z</time>
      </trkpt>
      <trkpt lat="48.73292" lon="2.51313">
        <ele>98.67</ele>
        <time>2012-05-08T12:05:10Z</time>
      </trkpt>
      <trkpt lat="48.73277" lon="2.51339">
        <ele>100.11</ele>
        <time>2012-05-08T12:04:00Z</time>
      </trkpt>
      <trkpt lat="48.73267" lon="2.51379">
        <ele>98.67</ele>
        <time>2012-05-08T12:03:36Z</time>
      </trkpt>
      <trkpt lat="48.73254" lon="2.51417">
        <ele>98.67</ele>
        <time>2012-05-08T12:03:13Z</time>
      </trkpt>
      <trkpt lat="48.73243" lon="2.51458">
        <ele>98.67</ele>
        <time>2012-05-08T12:02:51Z</time>
      </trkpt>
      <trkpt lat="48.7323" lon="2.51495">
        <ele>98.67</ele>
        <time>2012-05-08T12:02:29Z</time>
      </trkpt>
      <trkpt lat="48.73215" lon="2.51529">
        <ele>99.15</ele>
        <time>2012-05-08T12:02:09Z</time>
      </trkpt>
      <trkpt lat="48.73201" lon="2.5157">
        <ele>99.15</ele>
        <time>2012-05-08T12:01:47Z</time>
      </trkpt>
      <trkpt lat="48.73188" lon="2.51609">
        <ele>98.19</ele>
        <time>2012-05-08T12:01:25Z</time>
      </trkpt>
      <trkpt lat="48.73174" lon="2.51646">
        <ele>98.67</ele>
        <time>2012-05-08T12:01:03Z</time>
      </trkpt>
      <trkpt lat="48.73161" lon="2.51685">
        <ele>98.19</ele>
        <time>2012-05-08T12:00:42Z</time>
      </trkpt>
      <trkpt lat="48.73147" lon="2.51717">
        <ele>99.15</ele>
        <time>2012-05-08T12:00:19Z</time>
      </trkpt>
      <trkpt lat="48.73126" lon="2.51758">
        <ele>98.19</ele>
        <time>2012-05-08T11:59:55Z</time>
      </trkpt>
      <trkpt lat="48.73115" lon="2.51787">
        <ele>97.71</ele>
        <time>2012-05-08T11:59:33Z</time>
      </trkpt>
      <trkpt lat="48.73095" lon="2.51841">
        <ele>98.67</ele>
        <time>2012-05-08T11:59:07Z</time>
      </trkpt>
      <trkpt lat="48.73081" lon="2.51884">
        <ele>98.67</ele>
        <time>2012-05-08T11:58:42Z</time>
      </trkpt>
      <trkpt lat="48.73068" lon="2.51925">
        <ele>98.19</ele>
        <time>2012-05-08T11:58:19Z</time>
      </trkpt>
      <trkpt lat="48.73054" lon="2.51964">
        <ele>98.67</ele>
        <time>2012-05-08T11:57:56Z</time>
      </trkpt>
      <trkpt lat="48.7304" lon="2.52003">
        <ele>99.63</ele>
        <time>2012-05-08T11:57:33Z</time>
      </trkpt>
      <trkpt lat="48.73027" lon="2.52047">
        <ele>99.63</ele>
        <time>2012-05-08T11:57:08Z</time>
      </trkpt>
      <trkpt lat="48.73018" lon="2.52074">
        <ele>100.11</ele>
        <time>2012-05-08T11:55:50Z</time>
      </trkpt>
      <trkpt lat="48.73017" lon="2.52077">
        <ele>99.63</ele>
        <time>2012-05-08T11:54:26Z</time>
      </trkpt>
      <trkpt lat="48.73001" lon="2.521">
        <ele>99.63</ele>
        <time>2012-05-08T11:53:13Z</time>
      </trkpt>
      <trkpt lat="48.72981" lon="2.52138">
        <ele>98.67</ele>
        <time>2012-05-08T11:52:39Z</time>
      </trkpt>
      <trkpt lat="48.72965" lon="2.52179">
        <ele>97.71</ele>
        <time>2012-05-08T11:52:21Z</time>
      </trkpt>
      <trkpt lat="48.72948" lon="2.5221">
        <ele>98.19</ele>
        <time>2012-05-08T11:51:57Z</time>
      </trkpt>
      <trkpt lat="48.72927" lon="2.52248">
        <ele>98.19</ele>
        <time>2012-05-08T11:51:33Z</time>
      </trkpt>
      <trkpt lat="48.72915" lon="2.52283">
        <ele>98.19</ele>
        <time>2012-05-08T11:51:08Z</time>
      </trkpt>
      <trkpt lat="48.729" lon="2.52317">
        <ele>97.23</ele>
        <time>2012-05-08T11:50:44Z</time>
      </trkpt>
      <trkpt lat="48.7288" lon="2.52362">
        <ele>97.23</ele>
        <time>2012-05-08T11:50:22Z</time>
      </trkpt>
      <trkpt lat="48.72866" lon="2.524">
        <ele>96.75</ele>
        <time>2012-05-08T11:49:59Z</time>
      </trkpt>
      <trkpt lat="48.7285" lon="2.52438">
        <ele>96.75</ele>
        <time>2012-05-08T11:49:35Z</time>
      </trkpt>
      <trkpt lat="48.72838" lon="2.52475">
        <ele>97.23</ele>
        <time>2012-05-08T11:49:11Z</time>
      </trkpt>
      <trkpt lat="48.72824" lon="2.52523">
        <ele>98.19</ele>
        <time>2012-05-08T11:48:47Z</time>
      </trkpt>
      <trkpt lat="48.72812" lon="2.52569">
        <ele>99.15</ele>
        <time>2012-05-08T11:48:21Z</time>
      </trkpt>
      <trkpt lat="48.72796" lon="2.52632">
        <ele>100.6</ele>
        <time>2012-05-08T11:47:56Z</time>
      </trkpt>
      <trkpt lat="48.72792" lon="2.52664">
        <ele>101.08</ele>
        <time>2012-05-08T11:47:29Z</time>
      </trkpt>
      <trkpt lat="48.7277" lon="2.52675">
        <ele>100.6</ele>
        <time>2012-05-08T11:46:59Z</time>
      </trkpt>
      <trkpt lat="48.72752" lon="2.52724">
        <ele>99.15</ele>
        <time>2012-05-08T11:46:33Z</time>
      </trkpt>
      <trkpt lat="48.72734" lon="2.52766">
        <ele>96.75</ele>
        <time>2012-05-08T11:46:07Z</time>
      </trkpt>
      <trkpt lat="48.7272" lon="2.5279">
        <ele>96.27</ele>
        <time>2012-05-08T11:45:42Z</time>
      </trkpt>
      <trkpt lat="48.72695" lon="2.52807">
        <ele>96.75</ele>
        <time>2012-05-08T11:45:19Z</time>
      </trkpt>
      <trkpt lat="48.72678" lon="2.52859">
        <ele>95.79</ele>
        <time>2012-05-08T11:44:56Z</time>
      </trkpt>
      <trkpt lat="48.72666" lon="2.52893">
        <ele>97.23</ele>
        <time>2012-05-08T11:44:34Z</time>
      </trkpt>
      <trkpt lat="48.72654" lon="2.52937">
        <ele>97.23</ele>
        <time>2012-05-08T11:44:11Z</time>
      </trkpt>
      <trkpt lat="48.72643" lon="2.52979">
        <ele>98.19</ele>
        <time>2012-05-08T11:43:48Z</time>
      </trkpt>
      <trkpt lat="48.72631" lon="2.5302">
        <ele>98.67</ele>
        <time>2012-05-08T11:43:23Z</time>
      </trkpt>
      <trkpt lat="48.72623" lon="2.53055">
        <ele>99.15</ele>
        <time>2012-05-08T11:42:58Z</time>
      </trkpt>
      <trkpt lat="48.72615" lon="2.53102">
        <ele>98.19</ele>
        <time>2012-05-08T11:42:34Z</time>
      </trkpt>
      <trkpt lat="48.72616" lon="2.53147">
        <ele>98.67</ele>
        <time>2012-05-08T11:42:03Z</time>
      </trkpt>
      <trkpt lat="48.72606" lon="2.53156">
        <ele>98.19</ele>
        <time>2012-05-08T11:41:32Z</time>
      </trkpt>
      <trkpt lat="48.72602" lon="2.53234">
        <ele>95.31</ele>
        <time>2012-05-08T11:41:06Z</time>
      </trkpt>
      <trkpt lat="48.72603" lon="2.53279">
        <ele>93.87</ele>
        <time>2012-05-08T11:40:38Z</time>
      </trkpt>
      <trkpt lat="48.72602" lon="2.53323">
        <ele>92.9</ele>
        <time>2012-05-08T11:40:12Z</time>
      </trkpt>
      <trkpt lat="48.7261" lon="2.53362">
        <ele>91.94</ele>
        <time>2012-05-08T11:39:48Z</time>
      </trkpt>
      <trkpt lat="48.72615" lon="2.53384">
        <ele>89.54</ele>
        <time>2012-05-08T11:39:26Z</time>
      </trkpt>
      <trkpt lat="48.72617" lon="2.53412">
        <ele>89.06</ele>
        <time>2012-05-08T11:39:01Z</time>
      </trkpt>
      <trkpt lat="48.72616" lon="2.53494">
        <ele>89.54</ele>
        <time>2012-05-08T11:38:36Z</time>
      </trkpt>
      <trkpt lat="48.72627" lon="2.53527">
        <ele>89.06</ele>
        <time>2012-05-08T11:38:03Z</time>
      </trkpt>
      <trkpt lat="48.72629" lon="2.53573">
        <ele>89.06</ele>
        <time>2012-05-08T11:36:56Z</time>
      </trkpt>
      <trkpt lat="48.7263" lon="2.53616">
        <ele>89.54</ele>
        <time>2012-05-08T11:36:35Z</time>
      </trkpt>
      <trkpt lat="48.72632" lon="2.53657">
        <ele>89.06</ele>
        <time>2012-05-08T11:36:15Z</time>
      </trkpt>
      <trkpt lat="48.72637" lon="2.53698">
        <ele>88.58</ele>
        <time>2012-05-08T11:35:55Z</time>
      </trkpt>
      <trkpt lat="48.72637" lon="2.53741">
        <ele>89.06</ele>
        <time>2012-05-08T11:35:36Z</time>
      </trkpt>
      <trkpt lat="48.72638" lon="2.53784">
        <ele>88.58</ele>
        <time>2012-05-08T11:35:14Z</time>
      </trkpt>
      <trkpt lat="48.72637" lon="2.53828">
        <ele>88.1</ele>
        <time>2012-05-08T11:34:53Z</time>
      </trkpt>
      <trkpt lat="48.72635" lon="2.53872">
        <ele>88.58</ele>
        <time>2012-05-08T11:34:31Z</time>
      </trkpt>
      <trkpt lat="48.72632" lon="2.53915">
        <ele>87.62</ele>
        <time>2012-05-08T11:34:05Z</time>
      </trkpt>
      <trkpt lat="48.72627" lon="2.53958">
        <ele>87.62</ele>
        <time>2012-05-08T11:33:36Z</time>
      </trkpt>
      <trkpt lat="48.72616" lon="2.54018">
        <ele>87.62</ele>
        <time>2012-05-08T11:32:03Z</time>
      </trkpt>
      <trkpt lat="48.72619" lon="2.54055">
        <ele>87.62</ele>
        <time>2012-05-08T11:31:39Z</time>
      </trkpt>
      <trkpt lat="48.7261" lon="2.54097">
        <ele>87.14</ele>
        <time>2012-05-08T11:31:05Z</time>
      </trkpt>
      <trkpt lat="48.72598" lon="2.54169">
        <ele>87.14</ele>
        <time>2012-05-08T11:30:32Z</time>
      </trkpt>
      <trkpt lat="48.72578" lon="2.5423">
        <ele>86.66</ele>
        <time>2012-05-08T11:29:41Z</time>
      </trkpt>
      <trkpt lat="48.72559" lon="2.54291">
        <ele>86.18</ele>
        <time>2012-05-08T11:28:46Z</time>
      </trkpt>
      <trkpt lat="48.72542" lon="2.54337">
        <ele>85.69</ele>
        <time>2012-05-08T11:28:14Z</time>
      </trkpt>
      <trkpt lat="48.72518" lon="2.54395">
        <ele>85.69</ele>
        <time>2012-05-08T11:27:39Z</time>
      </trkpt>
      <trkpt lat="48.72489" lon="2.54444">
        <ele>84.25</ele>
        <time>2012-05-08T11:26:57Z</time>
      </trkpt>
      <trkpt lat="48.72461" lon="2.54494">
        <ele>82.81</ele>
        <time>2012-05-08T11:26:21Z</time>
      </trkpt>
      <trkpt lat="48.72432" lon="2.54538">
        <ele>83.77</ele>
        <time>2012-05-08T11:25:42Z</time>
      </trkpt>
      <trkpt lat="48.724" lon="2.54575">
        <ele>82.33</ele>
        <time>2012-05-08T11:24:51Z</time>
      </trkpt>
      <trkpt lat="48.72371" lon="2.54612">
        <ele>81.37</ele>
        <time>2012-05-08T11:24:22Z</time>
      </trkpt>
      <trkpt lat="48.72348" lon="2.54635">
        <ele>81.85</ele>
        <time>2012-05-08T11:23:52Z</time>
      </trkpt>
      <trkpt lat="48.72299" lon="2.54677">
        <ele>80.41</ele>
        <time>2012-05-08T11:23:25Z</time>
      </trkpt>
      <trkpt lat="48.72253" lon="2.54711">
        <ele>80.41</ele>
        <time>2012-05-08T11:22:49Z</time>
      </trkpt>
      <trkpt lat="48.7222" lon="2.54732">
        <ele>80.89</ele>
        <time>2012-05-08T11:22:06Z</time>
      </trkpt>
      <trkpt lat="48.72196" lon="2.54722">
        <ele>80.41</ele>
        <time>2012-05-08T11:21:27Z</time>
      </trkpt>
      <trkpt lat="48.72235" lon="2.54529">
        <ele>75.6</ele>
        <time>2012-05-08T11:20:46Z</time>
      </trkpt>
      <trkpt lat="48.72256" lon="2.54476">
        <ele>69.35</ele>
        <time>2012-05-08T11:19:38Z</time>
      </trkpt>
      <trkpt lat="48.72254" lon="2.5444">
        <ele>65.99</ele>
        <time>2012-05-08T11:18:58Z</time>
      </trkpt>
      <trkpt lat="48.72243" lon="2.5441">
        <ele>64.07</ele>
        <time>2012-05-08T11:18:25Z</time>
      </trkpt>
      <trkpt lat="48.72249" lon="2.54377">
        <ele>65.03</ele>
        <time>2012-05-08T11:17:55Z</time>
      </trkpt>
      <trkpt lat="48.72241" lon="2.54341">
        <ele>64.55</ele>
        <time>2012-05-08T11:17:28Z</time>
      </trkpt>
      <trkpt lat="48.72207" lon="2.54331">
        <ele>64.07</ele>
        <time>2012-05-08T11:17:01Z</time>
      </trkpt>
      <trkpt lat="48.72176" lon="2.54315">
        <ele>65.51</ele>
        <time>2012-05-08T11:16:35Z</time>
      </trkpt>
      <trkpt lat="48.72118" lon="2.54304">
        <ele>65.51</ele>
        <time>2012-05-08T11:16:10Z</time>
      </trkpt>
      <trkpt lat="48.72073" lon="2.54308">
        <ele>65.03</ele>
        <time>2012-05-08T11:15:43Z</time>
      </trkpt>
      <trkpt lat="48.72053" lon="2.54289">
        <ele>66.95</ele>
        <time>2012-05-08T11:15:11Z</time>
      </trkpt>
      <trkpt lat="48.72046" lon="2.54301">
        <ele>66.95</ele>
        <time>2012-05-08T11:14:42Z</time>
      </trkpt>
      <trkpt lat="48.72028" lon="2.54333">
        <ele>66.47</ele>
        <time>2012-05-08T11:14:12Z</time>
      </trkpt>
      <trkpt lat="48.72001" lon="2.54314">
        <ele>65.99</ele>
        <time>2012-05-08T11:13:38Z</time>
      </trkpt>
      <trkpt lat="48.71976" lon="2.54289">
        <ele>64.55</ele>
        <time>2012-05-08T11:13:14Z</time>
      </trkpt>
      <trkpt lat="48.71953" lon="2.54253">
        <ele>65.03</ele>
        <time>2012-05-08T11:12:49Z</time>
      </trkpt>
      <trkpt lat="48.71933" lon="2.54213">
        <ele>64.55</ele>
        <time>2012-05-08T11:12:20Z</time>
      </trkpt>
      <trkpt lat="48.71914" lon="2.54167">
        <ele>63.58</ele>
        <time>2012-05-08T11:11:48Z</time>
      </trkpt>
      <trkpt lat="48.71899" lon="2.54111">
        <ele>63.1</ele>
        <time>2012-05-08T11:11:12Z</time>
      </trkpt>
      <trkpt lat="48.71885" lon="2.54112">
        <ele>63.58</ele>
        <time>2012-05-08T11:10:25Z</time>
      </trkpt>
      <trkpt lat="48.71896" lon="2.54097">
        <ele>66.95</ele>
        <time>2012-05-08T10:38:00Z</time>
      </trkpt>
      <trkpt lat="48.71894" lon="2.54069">
        <ele>66.47</ele>
        <time>2012-05-08T10:37:28Z</time>
      </trkpt>
      <trkpt lat="48.71866" lon="2.54039">
        <ele>66.47</ele>
        <time>2012-05-08T10:37:01Z</time>
      </trkpt>
      <trkpt lat="48.71843" lon="2.54015">
        <ele>67.43</ele>
        <time>2012-05-08T10:36:36Z</time>
      </trkpt>
      <trkpt lat="48.71831" lon="2.53976">
        <ele>67.43</ele>
        <time>2012-05-08T10:36:07Z</time>
      </trkpt>
      <trkpt lat="48.71794" lon="2.53932">
        <ele>66.95</ele>
        <time>2012-05-08T10:35:16Z</time>
      </trkpt>
      <trkpt lat="48.71771" lon="2.53901">
        <ele>66.95</ele>
        <time>2012-05-08T10:34:51Z</time>
      </trkpt>
      <trkpt lat="48.71755" lon="2.53874">
        <ele>66.47</ele>
        <time>2012-05-08T10:34:22Z</time>
      </trkpt>
      <trkpt lat="48.71725" lon="2.53833">
        <ele>66.95</ele>
        <time>2012-05-08T10:33:56Z</time>
      </trkpt>
      <trkpt lat="48.71702" lon="2.53795">
        <ele>66.47</ele>
        <time>2012-05-08T10:33:30Z</time>
      </trkpt>
      <trkpt lat="48.71672" lon="2.53702">
        <ele>67.91</ele>
        <time>2012-05-08T10:33:03Z</time>
      </trkpt>
      <trkpt lat="48.71683" lon="2.53689">
        <ele>69.83</ele>
        <time>2012-05-08T10:32:37Z</time>
      </trkpt>
      <trkpt lat="48.71671" lon="2.53655">
        <ele>69.35</ele>
        <time>2012-05-08T10:31:30Z</time>
      </trkpt>
      <trkpt lat="48.71658" lon="2.53635">
        <ele>66.95</ele>
        <time>2012-05-08T10:30:55Z</time>
      </trkpt>
      <trkpt lat="48.71668" lon="2.53584">
        <ele>65.99</ele>
        <time>2012-05-08T10:30:25Z</time>
      </trkpt>
      <trkpt lat="48.71668" lon="2.53541">
        <ele>65.51</ele>
        <time>2012-05-08T10:29:59Z</time>
      </trkpt>
      <trkpt lat="48.71659" lon="2.53484">
        <ele>65.51</ele>
        <time>2012-05-08T10:29:34Z</time>
      </trkpt>
      <trkpt lat="48.71643" lon="2.53443">
        <ele>65.51</ele>
        <time>2012-05-08T10:29:10Z</time>
      </trkpt>
      <trkpt lat="48.71627" lon="2.53404">
        <ele>66.47</ele>
        <time>2012-05-08T10:28:47Z</time>
      </trkpt>
      <trkpt lat="48.71611" lon="2.53368">
        <ele>65.99</ele>
        <time>2012-05-08T10:28:25Z</time>
      </trkpt>
      <trkpt lat="48.71597" lon="2.53332">
        <ele>65.99</ele>
        <time>2012-05-08T10:28:03Z</time>
      </trkpt>
      <trkpt lat="48.71579" lon="2.5329">
        <ele>66.47</ele>
        <time>2012-05-08T10:27:38Z</time>
      </trkpt>
      <trkpt lat="48.71552" lon="2.53224">
        <ele>65.51</ele>
        <time>2012-05-08T10:27:03Z</time>
      </trkpt>
      <trkpt lat="48.71549" lon="2.53191">
        <ele>65.99</ele>
        <time>2012-05-08T10:26:36Z</time>
      </trkpt>
      <trkpt lat="48.71524" lon="2.53122">
        <ele>65.51</ele>
        <time>2012-05-08T10:26:10Z</time>
      </trkpt>
      <trkpt lat="48.71501" lon="2.53092">
        <ele>65.99</ele>
        <time>2012-05-08T10:25:43Z</time>
      </trkpt>
      <trkpt lat="48.7148" lon="2.53047">
        <ele>65.99</ele>
        <time>2012-05-08T10:25:06Z</time>
      </trkpt>
      <trkpt lat="48.71452" lon="2.52991">
        <ele>65.03</ele>
        <time>2012-05-08T10:24:34Z</time>
      </trkpt>
      <trkpt lat="48.71434" lon="2.52952">
        <ele>65.51</ele>
        <time>2012-05-08T10:24:10Z</time>
      </trkpt>
      <trkpt lat="48.71422" lon="2.52906">
        <ele>65.99</ele>
        <time>2012-05-08T10:23:45Z</time>
      </trkpt>
      <trkpt lat="48.71408" lon="2.52863">
        <ele>65.99</ele>
        <time>2012-05-08T10:23:15Z</time>
      </trkpt>
      <trkpt lat="48.71401" lon="2.52833">
        <ele>66.47</ele>
        <time>2012-05-08T10:22:53Z</time>
      </trkpt>
      <trkpt lat="48.71393" lon="2.52799">
        <ele>67.91</ele>
        <time>2012-05-08T10:22:28Z</time>
      </trkpt>
      <trkpt lat="48.71396" lon="2.52724">
        <ele>67.91</ele>
        <time>2012-05-08T10:22:00Z</time>
      </trkpt>
      <trkpt lat="48.71421" lon="2.52722">
        <ele>67.43</ele>
        <time>2012-05-08T10:21:26Z</time>
      </trkpt>
      <trkpt lat="48.71417" lon="2.52681">
        <ele>67.91</ele>
        <time>2012-05-08T10:20:49Z</time>
      </trkpt>
      <trkpt lat="48.71415" lon="2.52636">
        <ele>65.51</ele>
        <time>2012-05-08T10:20:24Z</time>
      </trkpt>
      <trkpt lat="48.71394" lon="2.52604">
        <ele>65.51</ele>
        <time>2012-05-08T10:19:59Z</time>
      </trkpt>
      <trkpt lat="48.71371" lon="2.52574">
        <ele>65.51</ele>
        <time>2012-05-08T10:19:35Z</time>
      </trkpt>
      <trkpt lat="48.71352" lon="2.52534">
        <ele>64.55</ele>
        <time>2012-05-08T10:19:09Z</time>
      </trkpt>
      <trkpt lat="48.71335" lon="2.52496">
        <ele>64.55</ele>
        <time>2012-05-08T10:18:45Z</time>
      </trkpt>
      <trkpt lat="48.7133" lon="2.5245">
        <ele>64.55</ele>
        <time>2012-05-08T10:18:21Z</time>
      </trkpt>
      <trkpt lat="48.71334" lon="2.52405">
        <ele>64.55</ele>
        <time>2012-05-08T10:17:56Z</time>
      </trkpt>
      <trkpt lat="48.71356" lon="2.52362">
        <ele>64.55</ele>
        <time>2012-05-08T10:17:32Z</time>
      </trkpt>
      <trkpt lat="48.71368" lon="2.5233">
        <ele>65.03</ele>
        <time>2012-05-08T10:17:08Z</time>
      </trkpt>
      <trkpt lat="48.71382" lon="2.52291">
        <ele>64.07</ele>
        <time>2012-05-08T10:16:45Z</time>
      </trkpt>
      <trkpt lat="48.71395" lon="2.52255">
        <ele>65.03</ele>
        <time>2012-05-08T10:16:20Z</time>
      </trkpt>
      <trkpt lat="48.71413" lon="2.52216">
        <ele>64.55</ele>
        <time>2012-05-08T10:15:55Z</time>
      </trkpt>
      <trkpt lat="48.71428" lon="2.52171">
        <ele>64.55</ele>
        <time>2012-05-08T10:15:29Z</time>
      </trkpt>
      <trkpt lat="48.71439" lon="2.52143">
        <ele>65.03</ele>
        <time>2012-05-08T10:14:29Z</time>
      </trkpt>
      <trkpt lat="48.7149" lon="2.52133">
        <ele>68.87</ele>
        <time>2012-05-08T10:13:48Z</time>
      </trkpt>
      <trkpt lat="48.71516" lon="2.52138">
        <ele>73.2</ele>
        <time>2012-05-08T10:13:17Z</time>
      </trkpt>
      <trkpt lat="48.71556" lon="2.52138">
        <ele>78.97</ele>
        <time>2012-05-08T10:12:34Z</time>
      </trkpt>
      <trkpt lat="48.7159" lon="2.52134">
        <ele>84.25</ele>
        <time>2012-05-08T10:11:48Z</time>
      </trkpt>
      <trkpt lat="48.71639" lon="2.52117">
        <ele>90.98</ele>
        <time>2012-05-08T10:10:27Z</time>
      </trkpt>
      <trkpt lat="48.71715" lon="2.52106">
        <ele>95.31</ele>
        <time>2012-05-08T10:09:40Z</time>
      </trkpt>
      <trkpt lat="48.71742" lon="2.52078">
        <ele>98.67</ele>
        <time>2012-05-08T10:09:00Z</time>
      </trkpt>
      <trkpt lat="48.71763" lon="2.52074">
        <ele>99.15</ele>
        <time>2012-05-08T10:08:26Z</time>
      </trkpt>
      <trkpt lat="48.71765" lon="2.5204">
        <ele>100.6</ele>
        <time>2012-05-08T10:07:50Z</time>
      </trkpt>
      <trkpt lat="48.71751" lon="2.51966">
        <ele>101.08</ele>
        <time>2012-05-08T10:07:16Z</time>
      </trkpt>
      <trkpt lat="48.71729" lon="2.51898">
        <ele>100.6</ele>
        <time>2012-05-08T10:06:44Z</time>
      </trkpt>
      <trkpt lat="48.71709" lon="2.51827">
        <ele>100.11</ele>
        <time>2012-05-08T10:06:10Z</time>
      </trkpt>
      <trkpt lat="48.71695" lon="2.51767">
        <ele>98.19</ele>
        <time>2012-05-08T10:05:34Z</time>
      </trkpt>
      <trkpt lat="48.71712" lon="2.51752">
        <ele>100.6</ele>
        <time>2012-05-08T10:05:03Z</time>
      </trkpt>
      <trkpt lat="48.71782" lon="2.51733">
        <ele>101.56</ele>
        <time>2012-05-08T10:04:28Z</time>
      </trkpt>
      <trkpt lat="48.71833" lon="2.5173">
        <ele>103.48</ele>
        <time>2012-05-08T10:03:45Z</time>
      </trkpt>
      <trkpt lat="48.71864" lon="2.5172">
        <ele>103.96</ele>
        <time>2012-05-08T10:02:58Z</time>
      </trkpt>
      <trkpt lat="48.71903" lon="2.51713">
        <ele>104.44</ele>
        <time>2012-05-08T10:02:30Z</time>
      </trkpt>
      <trkpt lat="48.71943" lon="2.51707">
        <ele>105.4</ele>
        <time>2012-05-08T10:01:58Z</time>
      </trkpt>
      <trkpt lat="48.71985" lon="2.51703">
        <ele>105.88</ele>
        <time>2012-05-08T10:01:27Z</time>
      </trkpt>
      <trkpt lat="48.72031" lon="2.51696">
        <ele>107.32</ele>
        <time>2012-05-08T10:00:53Z</time>
      </trkpt>
      <trkpt lat="48.7206" lon="2.5169">
        <ele>107.81</ele>
        <time>2012-05-08T10:00:25Z</time>
      </trkpt>
      <trkpt lat="48.721" lon="2.51686">
        <ele>108.77</ele>
        <time>2012-05-08T09:59:57Z</time>
      </trkpt>
      <trkpt lat="48.72142" lon="2.5168">
        <ele>109.73</ele>
        <time>2012-05-08T09:59:24Z</time>
      </trkpt>
      <trkpt lat="48.72194" lon="2.51671">
        <ele>112.13</ele>
        <time>2012-05-08T09:58:45Z</time>
      </trkpt>
      <trkpt lat="48.72213" lon="2.51667">
        <ele>115.01</ele>
        <time>2012-05-08T09:58:11Z</time>
      </trkpt>
      <trkpt lat="48.72213" lon="2.5159">
        <ele>115.98</ele>
        <time>2012-05-08T09:57:42Z</time>
      </trkpt>
      <trkpt lat="48.72213" lon="2.51533">
        <ele>117.9</ele>
        <time>2012-05-08T09:57:08Z</time>
      </trkpt>
      <trkpt lat="48.72214" lon="2.51478">
        <ele>119.34</ele>
        <time>2012-05-08T09:56:40Z</time>
      </trkpt>
      <trkpt lat="48.72213" lon="2.51417">
        <ele>120.3</ele>
        <time>2012-05-08T09:56:12Z</time>
      </trkpt>
      <trkpt lat="48.72215" lon="2.5136">
        <ele>123.19</ele>
        <time>2012-05-08T09:55:43Z</time>
      </trkpt>
      <trkpt lat="48.72214" lon="2.51302">
        <ele>125.11</ele>
        <time>2012-05-08T09:55:14Z</time>
      </trkpt>
      <trkpt lat="48.72213" lon="2.51255">
        <ele>126.55</ele>
        <time>2012-05-08T09:54:45Z</time>
      </trkpt>
      <trkpt lat="48.72215" lon="2.51209">
        <ele>127.03</ele>
        <time>2012-05-08T09:54:15Z</time>
      </trkpt>
      <trkpt lat="48.72217" lon="2.5115">
        <ele>127.03</ele>
        <time>2012-05-08T09:53:44Z</time>
      </trkpt>
      <trkpt lat="48.72215" lon="2.51093">
        <ele>127.99</ele>
        <time>2012-05-08T09:52:45Z</time>
      </trkpt>
      <trkpt lat="48.72213" lon="2.51043">
        <ele>129.43</ele>
        <time>2012-05-08T09:52:13Z</time>
      </trkpt>
      <trkpt lat="48.72206" lon="2.5102">
        <ele>128.47</ele>
        <time>2012-05-08T09:51:47Z</time>
      </trkpt>
      <trkpt lat="48.72227" lon="2.50968">
        <ele>129.43</ele>
        <time>2012-05-08T09:51:06Z</time>
      </trkpt>
      <trkpt lat="48.72229" lon="2.50923">
        <ele>132.32</ele>
        <time>2012-05-08T09:50:28Z</time>
      </trkpt>
      <trkpt lat="48.72212" lon="2.50889">
        <ele>132.32</ele>
        <time>2012-05-08T09:49:53Z</time>
      </trkpt>
      <trkpt lat="48.72209" lon="2.50843">
        <ele>131.84</ele>
        <time>2012-05-08T09:49:25Z</time>
      </trkpt>
      <trkpt lat="48.72212" lon="2.50792">
        <ele>130.88</ele>
        <time>2012-05-08T09:48:59Z</time>
      </trkpt>
      <trkpt lat="48.72211" lon="2.50751">
        <ele>129.92</ele>
        <time>2012-05-08T09:48:33Z</time>
      </trkpt>
      <trkpt lat="48.72212" lon="2.50697">
        <ele>127.99</ele>
        <time>2012-05-08T09:48:01Z</time>
      </trkpt>
      <trkpt lat="48.72213" lon="2.50647">
        <ele>127.03</ele>
        <time>2012-05-08T09:47:30Z</time>
      </trkpt>
      <trkpt lat="48.72211" lon="2.50601">
        <ele>126.07</ele>
        <time>2012-05-08T09:47:03Z</time>
      </trkpt>
      <trkpt lat="48.72209" lon="2.5055">
        <ele>125.11</ele>
        <time>2012-05-08T09:46:33Z</time>
      </trkpt>
      <trkpt lat="48.7221" lon="2.50504">
        <ele>124.15</ele>
        <time>2012-05-08T09:46:04Z</time>
      </trkpt>
      <trkpt lat="48.72207" lon="2.50449">
        <ele>123.19</ele>
        <time>2012-05-08T09:45:33Z</time>
      </trkpt>
      <trkpt lat="48.72206" lon="2.50405">
        <ele>121.26</ele>
        <time>2012-05-08T09:45:00Z</time>
      </trkpt>
      <trkpt lat="48.72253" lon="2.50401">
        <ele>119.82</ele>
        <time>2012-05-08T09:43:55Z</time>
      </trkpt>
      <trkpt lat="48.72298" lon="2.50398">
        <ele>118.86</ele>
        <time>2012-05-08T09:43:15Z</time>
      </trkpt>
      <trkpt lat="48.72343" lon="2.50393">
        <ele>118.38</ele>
        <time>2012-05-08T09:42:36Z</time>
      </trkpt>
      <trkpt lat="48.7239" lon="2.50392">
        <ele>118.38</ele>
        <time>2012-05-08T09:41:55Z</time>
      </trkpt>
      <trkpt lat="48.72451" lon="2.50385">
        <ele>120.78</ele>
        <time>2012-05-08T09:41:13Z</time>
      </trkpt>
      <trkpt lat="48.72504" lon="2.50379">
        <ele>122.22</ele>
        <time>2012-05-08T09:40:25Z</time>
      </trkpt>
      <trkpt lat="48.7255" lon="2.50376">
        <ele>121.74</ele>
        <time>2012-05-08T09:39:31Z</time>
      </trkpt>
      <trkpt lat="48.72594" lon="2.5038">
        <ele>121.26</ele>
        <time>2012-05-08T09:38:57Z</time>
      </trkpt>
      <trkpt lat="48.72619" lon="2.50378">
        <ele>120.78</ele>
        <time>2012-05-08T09:38:23Z</time>
      </trkpt>
      <trkpt lat="48.7265" lon="2.50373">
        <ele>119.82</ele>
        <time>2012-05-08T09:37:57Z</time>
      </trkpt>
      <trkpt lat="48.72683" lon="2.5037">
        <ele>119.82</ele>
        <time>2012-05-08T09:37:30Z</time>
      </trkpt>
      <trkpt lat="48.72717" lon="2.50366">
        <ele>119.34</ele>
        <time>2012-05-08T09:37:03Z</time>
      </trkpt>
      <trkpt lat="48.72752" lon="2.50366">
        <ele>118.86</ele>
        <time>2012-05-08T09:36:33Z</time>
      </trkpt>
      <trkpt lat="48.72786" lon="2.50362">
        <ele>116.94</ele>
        <time>2012-05-08T09:36:06Z</time>
      </trkpt>
      <trkpt lat="48.72824" lon="2.50357">
        <ele>116.46</ele>
        <time>2012-05-08T09:35:33Z</time>
      </trkpt>
      <trkpt lat="48.72866" lon="2.50355">
        <ele>114.05</ele>
        <time>2012-05-08T09:35:02Z</time>
      </trkpt>
      <trkpt lat="48.72906" lon="2.50353">
        <ele>114.53</ele>
        <time>2012-05-08T09:34:27Z</time>
      </trkpt>
      <trkpt lat="48.72955" lon="2.50351">
        <ele>113.09</ele>
        <time>2012-05-08T09:33:54Z</time>
      </trkpt>
      <trkpt lat="48.72991" lon="2.50348">
        <ele>112.13</ele>
        <time>2012-05-08T09:33:21Z</time>
      </trkpt>
      <trkpt lat="48.72996" lon="2.50403">
        <ele>112.13</ele>
        <time>2012-05-08T09:32:39Z</time>
      </trkpt>
      <trkpt lat="48.73031" lon="2.50375">
        <ele>112.13</ele>
        <time>2012-05-08T09:32:00Z</time>
      </trkpt>
      <trkpt lat="48.73065" lon="2.50362">
        <ele>111.17</ele>
        <time>2012-05-08T09:31:12Z</time>
      </trkpt>
      <trkpt lat="48.73086" lon="2.50335">
        <ele>111.17</ele>
        <time>2012-05-08T09:30:10Z</time>
      </trkpt>
      <trkpt lat="48.73134" lon="2.50327">
        <ele>107.81</ele>
        <time>2012-05-08T09:19:16Z</time>
      </trkpt>
      <trkpt lat="48.73172" lon="2.50326">
        <ele>106.84</ele>
        <time>2012-05-08T09:18:44Z</time>
      </trkpt>
      <trkpt lat="48.73217" lon="2.50323">
        <ele>106.36</ele>
        <time>2012-05-08T09:17:55Z</time>
      </trkpt>
      <trkpt lat="48.73257" lon="2.50323">
        <ele>106.36</ele>
        <time>2012-05-08T09:17:21Z</time>
      </trkpt>
      <trkpt lat="48.73303" lon="2.50319">
        <ele>105.4</ele>
        <time>2012-05-08T09:16:50Z</time>
      </trkpt>
      <trkpt lat="48.73334" lon="2.50315">
        <ele>105.4</ele>
        <time>2012-05-08T09:15:56Z</time>
      </trkpt>
      <trkpt lat="48.73342" lon="2.50292">
        <ele>106.84</ele>
        <time>2012-05-08T09:13:58Z</time>
      </trkpt>
      <trkpt lat="48.73353" lon="2.50228">
        <ele>105.4</ele>
        <time>2012-05-08T09:13:18Z</time>
      </trkpt>
      <trkpt lat="48.73361" lon="2.50151">
        <ele>105.4</ele>
        <time>2012-05-08T09:12:33Z</time>
      </trkpt>
      <trkpt lat="48.73367" lon="2.501">
        <ele>105.4</ele>
        <time>2012-05-08T09:12:02Z</time>
      </trkpt>
      <trkpt lat="48.73377" lon="2.50054">
        <ele>105.88</ele>
        <time>2012-05-08T09:11:36Z</time>
      </trkpt>
      <trkpt lat="48.73384" lon="2.50029">
        <ele>106.36</ele>
        <time>2012-05-08T09:11:13Z</time>
      </trkpt>
      <trkpt lat="48.73374" lon="2.49959">
        <ele>106.84</ele>
        <time>2012-05-08T09:10:31Z</time>
      </trkpt>
      <trkpt lat="48.7338" lon="2.4991">
        <ele>106.84</ele>
        <time>2012-05-08T09:10:06Z</time>
      </trkpt>
      <trkpt lat="48.73383" lon="2.49864">
        <ele>106.36</ele>
        <time>2012-05-08T09:09:42Z</time>
      </trkpt>
      <trkpt lat="48.73388" lon="2.49818">
        <ele>105.88</ele>
        <time>2012-05-08T09:09:19Z</time>
      </trkpt>
      <trkpt lat="48.73389" lon="2.49774">
        <ele>106.84</ele>
        <time>2012-05-08T09:08:51Z</time>
      </trkpt>
      <trkpt lat="48.73399" lon="2.49729">
        <ele>106.84</ele>
        <time>2012-05-08T09:08:26Z</time>
      </trkpt>
      <trkpt lat="48.73408" lon="2.49691">
        <ele>105.88</ele>
        <time>2012-05-08T09:07:43Z</time>
      </trkpt>
      <trkpt lat="48.7341" lon="2.49665">
        <ele>106.84</ele>
        <time>2012-05-08T09:06:46Z</time>
      </trkpt>
      <trkpt lat="48.73386" lon="2.49654">
        <ele>104.92</ele>
        <time>2012-05-08T09:05:55Z</time>
      </trkpt>
      <trkpt lat="48.7339" lon="2.49564">
        <ele>106.36</ele>
        <time>2012-05-08T09:05:17Z</time>
      </trkpt>
      <trkpt lat="48.73398" lon="2.49502">
        <ele>105.88</ele>
        <time>2012-05-08T09:04:44Z</time>
      </trkpt>
      <trkpt lat="48.73407" lon="2.49447">
        <ele>104.92</ele>
        <time>2012-05-08T09:04:03Z</time>
      </trkpt>
      <trkpt lat="48.7341" lon="2.4939">
        <ele>105.4</ele>
        <time>2012-05-08T09:03:18Z</time>
      </trkpt>
      <trkpt lat="48.73413" lon="2.49368">
        <ele>104.92</ele>
        <time>2012-05-08T09:02:20Z</time>
      </trkpt>
      <trkpt lat="48.73355" lon="2.49395">
        <ele>105.4</ele>
        <time>2012-05-08T09:01:35Z</time>
      </trkpt>
      <trkpt lat="48.73323" lon="2.49408">
        <ele>105.88</ele>
        <time>2012-05-08T09:01:06Z</time>
      </trkpt>
      <trkpt lat="48.73296" lon="2.49425">
        <ele>105.4</ele>
        <time>2012-05-08T09:00:41Z</time>
      </trkpt>
      <trkpt lat="48.73247" lon="2.49451">
        <ele>104.44</ele>
        <time>2012-05-08T08:59:56Z</time>
      </trkpt>
      <trkpt lat="48.73226" lon="2.49409">
        <ele>103.96</ele>
        <time>2012-05-08T08:59:14Z</time>
      </trkpt>
      <trkpt lat="48.73215" lon="2.49361">
        <ele>103.96</ele>
        <time>2012-05-08T08:58:40Z</time>
      </trkpt>
      <trkpt lat="48.73201" lon="2.49316">
        <ele>104.44</ele>
        <time>2012-05-08T08:58:04Z</time>
      </trkpt>
      <trkpt lat="48.73188" lon="2.49259">
        <ele>103.96</ele>
        <time>2012-05-08T08:57:31Z</time>
      </trkpt>
      <trkpt lat="48.7317" lon="2.49217">
        <ele>103.96</ele>
        <time>2012-05-08T08:56:56Z</time>
      </trkpt>
      <trkpt lat="48.73147" lon="2.49148">
        <ele>103.96</ele>
        <time>2012-05-08T08:56:10Z</time>
      </trkpt>
      <trkpt lat="48.73135" lon="2.49107">
        <ele>103</ele>
        <time>2012-05-08T08:55:34Z</time>
      </trkpt>
      <trkpt lat="48.73116" lon="2.49049">
        <ele>103.48</ele>
        <time>2012-05-08T08:54:52Z</time>
      </trkpt>
      <trkpt lat="48.73097" lon="2.48994">
        <ele>102.04</ele>
        <time>2012-05-08T08:54:17Z</time>
      </trkpt>
      <trkpt lat="48.73082" lon="2.48947">
        <ele>103</ele>
        <time>2012-05-08T08:53:43Z</time>
      </trkpt>
      <trkpt lat="48.73065" lon="2.48893">
        <ele>103.48</ele>
        <time>2012-05-08T08:53:14Z</time>
      </trkpt>
      <trkpt lat="48.73051" lon="2.48851">
        <ele>103</ele>
        <time>2012-05-08T08:52:24Z</time>
      </trkpt>
      <trkpt lat="48.7304" lon="2.48816">
        <ele>102.04</ele>
        <time>2012-05-08T08:51:47Z</time>
      </trkpt>
      <trkpt lat="48.73025" lon="2.48767">
        <ele>103</ele>
        <time>2012-05-08T08:51:16Z</time>
      </trkpt>
      <trkpt lat="48.73009" lon="2.48718">
        <ele>103</ele>
        <time>2012-05-08T08:50:45Z</time>
      </trkpt>
      <trkpt lat="48.72987" lon="2.48665">
        <ele>103.48</ele>
        <time>2012-05-08T08:50:14Z</time>
      </trkpt>
      <trkpt lat="48.72973" lon="2.4862">
        <ele>102.52</ele>
        <time>2012-05-08T08:49:47Z</time>
      </trkpt>
      <trkpt lat="48.72956" lon="2.48572">
        <ele>102.04</ele>
        <time>2012-05-08T08:49:13Z</time>
      </trkpt>
      <trkpt lat="48.72938" lon="2.48518">
        <ele>101.56</ele>
        <time>2012-05-08T08:48:43Z</time>
      </trkpt>
      <trkpt lat="48.72924" lon="2.48463">
        <ele>103</ele>
        <time>2012-05-08T08:48:16Z</time>
      </trkpt>
      <trkpt lat="48.72911" lon="2.48426">
        <ele>99.63</ele>
        <time>2012-05-08T08:47:34Z</time>
      </trkpt>
      <trkpt lat="48.72902" lon="2.48376">
        <ele>97.71</ele>
        <time>2012-05-08T08:47:01Z</time>
      </trkpt>
      <trkpt lat="48.72889" lon="2.48349">
        <ele>98.67</ele>
        <time>2012-05-08T08:46:22Z</time>
      </trkpt>
      <trkpt lat="48.72873" lon="2.48276">
        <ele>98.19</ele>
        <time>2012-05-08T08:45:33Z</time>
      </trkpt>
      <trkpt lat="48.72855" lon="2.48218">
        <ele>98.19</ele>
        <time>2012-05-08T08:44:58Z</time>
      </trkpt>
      <trkpt lat="48.72832" lon="2.48143">
        <ele>96.75</ele>
        <time>2012-05-08T08:44:23Z</time>
      </trkpt>
      <trkpt lat="48.7282" lon="2.48093">
        <ele>96.27</ele>
        <time>2012-05-08T08:43:44Z</time>
      </trkpt>
      <trkpt lat="48.72809" lon="2.48041">
        <ele>95.31</ele>
        <time>2012-05-08T08:43:14Z</time>
      </trkpt>
      <trkpt lat="48.72796" lon="2.47979">
        <ele>95.31</ele>
        <time>2012-05-08T08:42:37Z</time>
      </trkpt>
      <trkpt lat="48.72791" lon="2.47914">
        <ele>94.35</ele>
        <time>2012-05-08T08:42:02Z</time>
      </trkpt>
      <trkpt lat="48.72785" lon="2.47839">
        <ele>93.87</ele>
        <time>2012-05-08T08:41:24Z</time>
      </trkpt>
      <trkpt lat="48.72779" lon="2.47765">
        <ele>94.83</ele>
        <time>2012-05-08T08:40:49Z</time>
      </trkpt>
      <trkpt lat="48.72775" lon="2.47692">
        <ele>93.87</ele>
        <time>2012-05-08T08:40:11Z</time>
      </trkpt>
      <trkpt lat="48.72773" lon="2.47646">
        <ele>94.35</ele>
        <time>2012-05-08T08:39:43Z</time>
      </trkpt>
      <trkpt lat="48.72774" lon="2.47601">
        <ele>95.31</ele>
        <time>2012-05-08T08:39:13Z</time>
      </trkpt>
      <trkpt lat="48.72775" lon="2.4755">
        <ele>95.31</ele>
        <time>2012-05-08T08:38:48Z</time>
      </trkpt>
      <trkpt lat="48.7277" lon="2.47496">
        <ele>94.83</ele>
        <time>2012-05-08T08:38:19Z</time>
      </trkpt>
      <trkpt lat="48.72769" lon="2.47446">
        <ele>94.83</ele>
        <time>2012-05-08T08:37:50Z</time>
      </trkpt>
      <trkpt lat="48.72767" lon="2.47401">
        <ele>95.79</ele>
        <time>2012-05-08T08:37:27Z</time>
      </trkpt>
      <trkpt lat="48.72765" lon="2.47349">
        <ele>93.87</ele>
        <time>2012-05-08T08:37:01Z</time>
      </trkpt>
      <trkpt lat="48.72762" lon="2.47286">
        <ele>94.83</ele>
        <time>2012-05-08T08:36:35Z</time>
      </trkpt>
      <trkpt lat="48.72753" lon="2.47262">
        <ele>93.39</ele>
        <time>2012-05-08T08:35:20Z</time>
      </trkpt>
      <trkpt lat="48.72754" lon="2.47212">
        <ele>94.35</ele>
        <time>2012-05-08T08:34:54Z</time>
      </trkpt>
      <trkpt lat="48.72752" lon="2.4716">
        <ele>94.35</ele>
        <time>2012-05-08T08:34:23Z</time>
      </trkpt>
      <trkpt lat="48.72733" lon="2.47108">
        <ele>95.31</ele>
        <time>2012-05-08T08:33:40Z</time>
      </trkpt>
      <trkpt lat="48.72709" lon="2.47053">
        <ele>95.31</ele>
        <time>2012-05-08T08:33:08Z</time>
      </trkpt>
      <trkpt lat="48.72693" lon="2.46991">
        <ele>95.31</ele>
        <time>2012-05-08T08:32:31Z</time>
      </trkpt>
      <trkpt lat="48.72682" lon="2.46938">
        <ele>94.35</ele>
        <time>2012-05-08T08:31:54Z</time>
      </trkpt>
      <trkpt lat="48.7267" lon="2.4687">
        <ele>94.35</ele>
        <time>2012-05-08T08:31:18Z</time>
      </trkpt>
      <trkpt lat="48.72661" lon="2.46819">
        <ele>93.87</ele>
        <time>2012-05-08T08:30:50Z</time>
      </trkpt>
      <trkpt lat="48.72663" lon="2.46764">
        <ele>93.87</ele>
        <time>2012-05-08T08:30:19Z</time>
      </trkpt>
      <trkpt lat="48.72669" lon="2.46751">
        <ele>93.87</ele>
        <time>2012-05-08T08:29:51Z</time>
      </trkpt>
      <trkpt lat="48.72662" lon="2.46668">
        <ele>94.35</ele>
        <time>2012-05-08T08:29:25Z</time>
      </trkpt>
      <trkpt lat="48.72658" lon="2.46619">
        <ele>94.83</ele>
        <time>2012-05-08T08:28:57Z</time>
      </trkpt>
      <trkpt lat="48.72657" lon="2.46579">
        <ele>95.79</ele>
        <time>2012-05-08T08:25:28Z</time>
      </trkpt>
      <trkpt lat="48.72655" lon="2.46547">
        <ele>95.79</ele>
        <time>2012-05-08T08:24:53Z</time>
      </trkpt>
      <trkpt lat="48.72689" lon="2.46518">
        <ele>95.79</ele>
        <time>2012-05-08T08:24:15Z</time>
      </trkpt>
      <trkpt lat="48.7271" lon="2.46492">
        <ele>95.31</ele>
        <time>2012-05-08T08:23:43Z</time>
      </trkpt>
      <trkpt lat="48.72691" lon="2.46423">
        <ele>95.31</ele>
        <time>2012-05-08T08:22:52Z</time>
      </trkpt>
      <trkpt lat="48.72695" lon="2.46404">
        <ele>95.31</ele>
        <time>2012-05-08T08:22:24Z</time>
      </trkpt>
      <trkpt lat="48.72742" lon="2.46347">
        <ele>95.79</ele>
        <time>2012-05-08T08:21:59Z</time>
      </trkpt>
      <trkpt lat="48.7274" lon="2.46325">
        <ele>95.79</ele>
        <time>2012-05-08T08:21:34Z</time>
      </trkpt>
      <trkpt lat="48.727" lon="2.46321">
        <ele>95.31</ele>
        <time>2012-05-08T08:21:08Z</time>
      </trkpt>
      <trkpt lat="48.72668" lon="2.46315">
        <ele>96.27</ele>
        <time>2012-05-08T08:20:44Z</time>
      </trkpt>
      <trkpt lat="48.72643" lon="2.463">
        <ele>96.27</ele>
        <time>2012-05-08T08:20:24Z</time>
      </trkpt>
      <trkpt lat="48.72623" lon="2.46271">
        <ele>97.23</ele>
        <time>2012-05-08T08:20:08Z</time>
      </trkpt>
      <trkpt lat="48.7262" lon="2.46227">
        <ele>97.71</ele>
        <time>2012-05-08T08:19:47Z</time>
      </trkpt>
      <trkpt lat="48.72615" lon="2.46179">
        <ele>96.75</ele>
        <time>2012-05-08T08:19:27Z</time>
      </trkpt>
      <trkpt lat="48.72613" lon="2.46139">
        <ele>97.23</ele>
        <time>2012-05-08T08:19:06Z</time>
      </trkpt>
      <trkpt lat="48.72603" lon="2.46078">
        <ele>98.67</ele>
        <time>2012-05-08T08:18:32Z</time>
      </trkpt>
      <trkpt lat="48.726" lon="2.46037">
        <ele>98.67</ele>
        <time>2012-05-08T08:17:51Z</time>
      </trkpt>
      <trkpt lat="48.72592" lon="2.45995">
        <ele>99.15</ele>
        <time>2012-05-08T08:17:27Z</time>
      </trkpt>
      <trkpt lat="48.72582" lon="2.45953">
        <ele>99.15</ele>
        <time>2012-05-08T08:16:56Z</time>
      </trkpt>
      <trkpt lat="48.7256" lon="2.4591">
        <ele>98.19</ele>
        <time>2012-05-08T08:16:19Z</time>
      </trkpt>
      <trkpt lat="48.72537" lon="2.45868">
        <ele>97.71</ele>
        <time>2012-05-08T08:15:57Z</time>
      </trkpt>
      <trkpt lat="48.72522" lon="2.45829">
        <ele>96.75</ele>
        <time>2012-05-08T08:15:22Z</time>
      </trkpt>
      <trkpt lat="48.72519" lon="2.45787">
        <ele>97.71</ele>
        <time>2012-05-08T08:14:56Z</time>
      </trkpt>
      <trkpt lat="48.72521" lon="2.45739">
        <ele>99.15</ele>
        <time>2012-05-08T08:14:20Z</time>
      </trkpt>
      <trkpt lat="48.72522" lon="2.45691">
        <ele>99.15</ele>
        <time>2012-05-08T08:13:55Z</time>
      </trkpt>
      <trkpt lat="48.72524" lon="2.45641">
        <ele>99.15</ele>
        <time>2012-05-08T08:13:19Z</time>
      </trkpt>
      <trkpt lat="48.72523" lon="2.45595">
        <ele>99.15</ele>
        <time>2012-05-08T08:12:57Z</time>
      </trkpt>
      <trkpt lat="48.72527" lon="2.45551">
        <ele>98.67</ele>
        <time>2012-05-08T08:12:27Z</time>
      </trkpt>
      <trkpt lat="48.72527" lon="2.4551">
        <ele>98.67</ele>
        <time>2012-05-08T08:11:51Z</time>
      </trkpt>
      <trkpt lat="48.72528" lon="2.4547">
        <ele>97.71</ele>
        <time>2012-05-08T08:11:21Z</time>
      </trkpt>
      <trkpt lat="48.72529" lon="2.45427">
        <ele>98.19</ele>
        <time>2012-05-08T08:10:51Z</time>
      </trkpt>
      <trkpt lat="48.72534" lon="2.45382">
        <ele>97.23</ele>
        <time>2012-05-08T08:10:24Z</time>
      </trkpt>
      <trkpt lat="48.7254" lon="2.45332">
        <ele>97.71</ele>
        <time>2012-05-08T08:09:45Z</time>
      </trkpt>
      <trkpt lat="48.72546" lon="2.45286">
        <ele>97.23</ele>
        <time>2012-05-08T08:09:18Z</time>
      </trkpt>
      <trkpt lat="48.72551" lon="2.45237">
        <ele>96.75</ele>
        <time>2012-05-08T08:08:52Z</time>
      </trkpt>
      <trkpt lat="48.72558" lon="2.45192">
        <ele>96.75</ele>
        <time>2012-05-08T08:08:25Z</time>
      </trkpt>
      <trkpt lat="48.72569" lon="2.45149">
        <ele>96.75</ele>
        <time>2012-05-08T08:07:59Z</time>
      </trkpt>
      <trkpt lat="48.72585" lon="2.45108">
        <ele>97.23</ele>
        <time>2012-05-08T08:07:31Z</time>
      </trkpt>
      <trkpt lat="48.72602" lon="2.45071">
        <ele>95.79</ele>
        <time>2012-05-08T08:06:58Z</time>
      </trkpt>
      <trkpt lat="48.7262" lon="2.45035">
        <ele>92.9</ele>
        <time>2012-05-08T08:06:32Z</time>
      </trkpt>
      <trkpt lat="48.72638" lon="2.45003">
        <ele>90.98</ele>
        <time>2012-05-08T08:06:06Z</time>
      </trkpt>
      <trkpt lat="48.72652" lon="2.44971">
        <ele>87.62</ele>
        <time>2012-05-08T08:05:37Z</time>
      </trkpt>
      <trkpt lat="48.72692" lon="2.44942">
        <ele>84.73</ele>
        <time>2012-05-08T08:05:03Z</time>
      </trkpt>
      <trkpt lat="48.72729" lon="2.44915">
        <ele>79.93</ele>
        <time>2012-05-08T08:04:18Z</time>
      </trkpt>
      <trkpt lat="48.72755" lon="2.44886">
        <ele>71.76</ele>
        <time>2012-05-08T08:03:17Z</time>
      </trkpt>
      <trkpt lat="48.72789" lon="2.4489">
        <ele>67.91</ele>
        <time>2012-05-08T08:02:36Z</time>
      </trkpt>
      <trkpt lat="48.72814" lon="2.44904">
        <ele>63.1</ele>
        <time>2012-05-08T08:01:47Z</time>
      </trkpt>
      <trkpt lat="48.72853" lon="2.44835">
        <ele>55.89</ele>
        <time>2012-05-08T08:00:53Z</time>
      </trkpt>
      <trkpt lat="48.7287" lon="2.44773">
        <ele>48.68</ele>
        <time>2012-05-08T08:00:04Z</time>
      </trkpt>
      <trkpt lat="48.72893" lon="2.44744">
        <ele>46.28</ele>
        <time>2012-05-08T07:59:21Z</time>
      </trkpt>
      <trkpt lat="48.72897" lon="2.44716">
        <ele>43.4</ele>
        <time>2012-05-08T07:58:49Z</time>
      </trkpt>
      <trkpt lat="48.72954" lon="2.44709">
        <ele>42.92</ele>
        <time>2012-05-08T07:58:26Z</time>
      </trkpt>
      <trkpt lat="48.72967" lon="2.4469">
        <ele>42.44</ele>
        <time>2012-05-08T07:57:44Z</time>
      </trkpt>
      <trkpt lat="48.7302" lon="2.44681">
        <ele>41.47</ele>
        <time>2012-05-08T07:55:56Z</time>
      </trkpt>
    </trkseg>
  </trk>
</gpx>